createdAt,value
2019-02-11T00:02:48.821Z,95948.80
2019-02-11T00:07:50.374Z,95941.27
2019-02-11T00:12:51.948Z,95928.06
2019-02-11T00:17:53.676Z,95937.65
2019-02-11T00:22:55.334Z,95943.90
2019-02-11T00:27:57.242Z,95939.56
2019-02-11T00:32:59.069Z,95956.30
2019-02-11T00:38:00.767Z,95972.44
2019-02-11T00:43:02.316Z,95982.79
2019-02-11T00:48:03.988Z,96003.73
2019-02-11T00:53:05.546Z,96021.73
2019-02-11T00:58:07.215Z,96034.73
2019-02-11T01:03:08.820Z,96034.84
2019-02-11T01:08:10.392Z,96027.84
2019-02-11T01:13:12.026Z,96015.16
2019-02-11T01:18:13.628Z,96025.66
2019-02-11T01:23:15.301Z,96025.19
2019-02-11T01:28:16.999Z,96016.70
2019-02-11T01:33:18.593Z,96012.00
2019-02-11T01:38:20.150Z,96004.06
2019-02-11T01:43:23.721Z,96013.09
2019-02-11T01:48:27.011Z,96006.09
2019-02-11T01:53:28.620Z,96004.98
2019-02-11T01:58:30.172Z,96013.73
2019-02-11T02:03:31.774Z,95994.96
2019-02-11T02:08:33.333Z,95982.09
2019-02-11T02:13:34.896Z,95980.69
2019-02-11T02:18:36.721Z,95977.31
2019-02-11T02:23:38.385Z,95976.89
2019-02-11T02:28:39.948Z,95960.69
2019-02-11T02:33:41.564Z,95955.93
2019-02-11T02:38:43.181Z,95960.77
2019-02-11T02:43:54.963Z,95943.75
2019-02-11T02:48:48.206Z,95950.11
2019-02-11T02:53:49.768Z,95948.38
2019-02-11T02:58:51.361Z,95952.18
2019-02-11T03:03:53.031Z,95962.37
2019-02-11T03:08:54.597Z,95951.44
2019-02-11T03:14:05.483Z,95952.53
2019-02-11T03:19:00.780Z,95957.88
2019-02-11T03:24:02.482Z,95962.08
2019-02-11T03:29:04.057Z,95979.43
2019-02-11T03:34:05.648Z,95976.04
2019-02-11T03:39:07.260Z,95973.81
2019-02-11T03:44:14.827Z,95996.24
2019-02-11T03:49:12.270Z,95993.97
2019-02-11T03:54:13.869Z,95996.59
2019-02-11T03:59:15.814Z,95983.09
2019-02-11T04:04:17.402Z,95993.15
2019-02-11T04:09:19.013Z,95994.98
2019-02-11T04:14:25.053Z,95994.98
2019-02-11T04:19:24.106Z,95988.77
2019-02-11T04:24:25.765Z,95992.70
2019-02-11T04:29:27.329Z,95986.34
2019-02-11T04:34:28.922Z,95989.05
2019-02-11T04:39:30.549Z,95984.08
2019-02-11T04:44:34.063Z,95991.27
2019-02-11T04:49:35.658Z,95982.28
2019-02-11T04:54:37.253Z,95973.69
2019-02-11T04:59:38.853Z,95961.17
2019-02-11T05:04:40.417Z,95962.14
2019-02-11T05:09:42.022Z,95979.38
2019-02-11T05:14:44.408Z,95970.17
2019-02-11T05:19:46.109Z,95973.14
2019-02-11T05:24:47.678Z,95956.69
2019-02-11T05:29:49.241Z,95962.83
2019-02-11T05:34:50.793Z,95968.23
2019-02-11T05:39:52.419Z,95963.73
2019-02-11T05:44:54.422Z,95958.97
2019-02-11T05:49:56.471Z,95969.84
2019-02-11T05:54:58.179Z,95975.50
2019-02-11T05:59:59.750Z,95977.02
2019-02-11T06:05:01.607Z,95987.97
2019-02-11T06:10:09.773Z,95981.80
2019-02-11T06:15:11.539Z,95992.05
2019-02-11T06:20:13.231Z,96005.84
2019-02-11T06:25:14.785Z,96008.47
2019-02-11T06:30:16.348Z,96032.33
2019-02-11T06:35:17.901Z,96045.31
2019-02-11T06:40:19.473Z,96052.98
2019-02-11T06:45:21.161Z,96060.24
2019-02-11T06:50:22.757Z,96068.70
2019-02-11T06:55:24.307Z,96067.53
2019-02-11T07:00:25.865Z,96072.08
2019-02-11T07:05:27.413Z,96080.90
2019-02-11T07:10:28.989Z,96098.89
2019-02-11T07:15:30.821Z,96098.08
2019-02-11T07:20:32.696Z,96113.86
2019-02-11T07:25:34.249Z,96119.45
2019-02-11T07:30:35.814Z,96119.45
2019-02-11T07:35:37.481Z,96140.93
2019-02-11T07:40:39.081Z,96136.73
2019-02-11T07:45:48.446Z,96131.11
2019-02-11T07:50:50.015Z,96132.00
2019-02-11T07:55:51.930Z,96124.74
2019-02-11T08:00:53.493Z,96119.95
2019-02-11T08:05:55.141Z,96116.34
2019-02-11T08:10:56.894Z,96104.86
2019-02-11T08:15:58.515Z,96113.93
2019-02-11T08:21:01.254Z,96123.85
2019-02-11T08:26:04.029Z,96126.34
2019-02-11T08:31:05.927Z,96132.00
2019-02-11T08:36:07.684Z,96139.64
2019-02-11T08:41:09.252Z,96123.27
2019-02-11T08:46:10.913Z,96133.27
2019-02-11T08:51:12.493Z,96147.31
2019-02-11T08:56:14.085Z,96159.23
2019-02-11T09:01:15.836Z,96160.16
2019-02-11T09:06:18.089Z,96173.09
2019-02-11T09:11:19.809Z,96176.02
2019-02-11T09:16:21.776Z,96187.59
2019-02-11T09:21:23.949Z,96208.52
2019-02-11T09:26:25.606Z,96201.59
2019-02-11T09:31:27.277Z,96197.36
2019-02-11T09:36:28.839Z,96227.66
2019-02-11T09:41:32.186Z,96227.21
2019-02-11T09:46:34.007Z,96242.64
2019-02-11T09:51:40.830Z,96240.77
2019-02-11T09:56:42.390Z,96254.83
2019-02-11T10:01:43.953Z,96263.36
2019-02-11T10:06:45.517Z,96265.21
2019-02-11T10:11:47.185Z,96274.74
2019-02-11T10:16:48.746Z,96283.80
2019-02-11T10:21:50.425Z,96304.24
2019-02-11T10:26:51.980Z,96307.62
2019-02-11T10:31:53.638Z,96298.68
2019-02-11T10:36:55.233Z,96310.52
2019-02-11T10:41:56.793Z,96306.38
2019-02-11T10:46:58.811Z,96310.05
2019-02-11T10:52:00.393Z,96325.55
2019-02-11T10:57:01.952Z,96335.83
2019-02-11T11:02:03.720Z,96356.81
2019-02-11T11:07:05.594Z,96364.78
2019-02-11T11:12:07.555Z,96384.97
2019-02-11T11:17:09.253Z,96387.98
2019-02-11T11:22:11.022Z,96409.95
2019-02-11T11:27:12.722Z,96398.49
2019-02-11T11:32:14.869Z,96395.73
2019-02-11T11:37:16.648Z,96405.39
2019-02-11T11:42:18.222Z,96424.27
2019-02-11T11:47:19.873Z,96436.80
2019-02-11T11:52:21.442Z,96448.25
2019-02-11T11:57:23.372Z,96476.42
2019-02-11T12:02:24.965Z,96491.36
2019-02-11T12:07:26.547Z,96504.14
2019-02-11T12:12:28.109Z,96512.47
2019-02-11T12:17:29.675Z,96513.62
2019-02-11T12:22:31.306Z,96529.47
2019-02-11T12:27:33.425Z,96525.65
2019-02-11T12:32:35.184Z,96527.28
2019-02-11T12:37:37.022Z,96543.14
2019-02-11T12:42:40.805Z,96548.51
2019-02-11T12:47:42.468Z,96541.95
2019-02-11T12:52:44.141Z,96546.49
2019-02-11T12:57:45.947Z,96541.83
2019-02-11T13:02:47.959Z,96552.59
2019-02-11T13:07:49.657Z,96551.53
2019-02-11T13:12:51.318Z,96554.77
2019-02-11T13:17:52.980Z,96558.97
2019-02-11T13:22:54.861Z,96561.14
2019-02-11T13:27:57.084Z,96573.33
2019-02-11T13:32:58.640Z,96586.48
2019-02-11T13:38:00.303Z,96597.27
2019-02-11T13:43:02.339Z,96615.91
2019-02-11T13:48:04.497Z,96618.66
2019-02-11T13:53:06.613Z,96631.05
2019-02-11T13:58:08.907Z,96630.22
2019-02-11T14:03:10.596Z,96631.05
2019-02-11T14:08:12.185Z,96643.68
2019-02-11T14:13:14.439Z,96652.64
2019-02-11T14:18:16.337Z,96662.93
2019-02-11T14:23:18.696Z,96679.27
2019-02-11T14:28:20.469Z,96684.27
2019-02-11T14:33:22.151Z,96698.95
2019-02-11T14:38:24.235Z,96696.81
2019-02-11T14:43:26.091Z,96701.47
2019-02-11T14:48:29.311Z,96704.48
2019-02-11T14:53:31.331Z,96704.72
2019-02-11T14:58:33.499Z,96704.59
2019-02-11T15:03:35.074Z,96707.72
2019-02-11T15:08:36.855Z,96713.80
2019-02-11T15:13:40.329Z,96732.44
2019-02-11T15:18:41.900Z,96743.67
2019-02-11T15:23:43.663Z,96754.63
2019-02-11T15:28:45.230Z,96755.70
2019-02-11T15:33:46.954Z,96765.89
2019-02-11T15:38:48.521Z,96780.84
2019-02-11T15:43:50.099Z,96799.23
2019-02-11T15:48:51.670Z,96799.95
2019-02-11T15:53:53.233Z,96810.83
2019-02-11T15:58:54.847Z,96811.06
2019-02-11T16:03:56.468Z,96813.69
2019-02-11T16:09:04.294Z,96827.77
2019-02-11T16:14:02.222Z,96841.39
2019-02-11T16:19:03.796Z,96852.13
2019-02-11T16:24:05.442Z,96861.30
2019-02-11T16:29:08.903Z,96875.48
2019-02-11T16:34:11.231Z,96879.29
2019-02-11T16:39:13.099Z,96893.68
2019-02-11T16:44:14.775Z,96896.16
2019-02-11T16:49:16.345Z,96894.45
2019-02-11T16:54:18.310Z,96901.69
2019-02-11T16:59:19.922Z,96925.28
2019-02-11T17:04:21.559Z,96933.09
2019-02-11T17:09:23.159Z,96949.89
2019-02-11T17:14:24.760Z,96953.86
2019-02-11T17:19:26.326Z,96960.27
2019-02-11T17:24:28.088Z,96968.20
2019-02-11T17:29:29.647Z,96985.74
2019-02-11T17:34:32.222Z,96997.47
2019-02-11T17:39:33.803Z,97023.09
2019-02-11T17:44:35.519Z,97031.58
2019-02-11T17:49:37.087Z,97051.27
2019-02-11T17:54:39.091Z,97052.02
2019-02-11T17:59:40.707Z,97063.98
2019-02-11T18:04:42.424Z,97069.80
2019-02-11T18:09:44.022Z,97071.70
2019-02-11T18:14:47.066Z,97089.59
2019-02-11T18:19:50.884Z,97096.84
2019-02-11T18:24:54.539Z,97103.85
2019-02-11T18:29:56.915Z,97106.79
2019-02-11T18:34:58.576Z,97111.33
2019-02-11T18:40:02.478Z,97118.84
2019-02-11T18:45:12.515Z,97106.50
2019-02-11T18:50:14.881Z,97115.30
2019-02-11T18:55:18.763Z,97117.75
2019-02-11T19:00:20.473Z,97118.13
2019-02-11T19:05:22.509Z,97124.95
2019-02-11T19:10:24.644Z,97120.58
2019-02-11T19:15:26.215Z,97140.14
2019-02-11T19:20:27.839Z,97140.04
2019-02-11T19:25:29.489Z,97144.35
2019-02-11T19:30:31.284Z,97154.64
2019-02-11T19:35:34.379Z,97162.99
2019-02-11T19:40:37.830Z,97170.00
2019-02-11T19:45:41.362Z,97183.11
2019-02-11T19:50:42.946Z,97185.48
2019-02-11T19:55:47.751Z,97197.74
2019-02-11T20:00:49.356Z,97207.68
2019-02-11T20:05:53.283Z,97221.63
2019-02-11T20:10:54.874Z,97222.11
2019-02-11T20:15:58.366Z,97240.92
2019-02-11T20:21:01.876Z,97250.30
2019-02-11T20:26:03.529Z,97254.41
2019-02-11T20:31:07.385Z,97270.81
2019-02-11T20:36:10.495Z,97266.22
2019-02-11T20:41:13.374Z,97276.16
2019-02-11T20:46:16.913Z,97277.55
2019-02-11T20:51:18.606Z,97287.20
2019-02-11T20:56:21.392Z,97297.09
2019-02-11T21:01:25.109Z,97307.28
2019-02-11T21:06:27.658Z,97301.95
2019-02-11T21:11:30.471Z,97307.67
2019-02-11T21:16:33.429Z,97323.39
2019-02-11T21:21:35.542Z,97330.48
2019-02-11T21:26:38.616Z,97327.19
2019-02-11T21:31:40.469Z,97324.66
2019-02-11T21:36:43.846Z,97326.55
2019-02-11T21:41:47.166Z,97334.03
2019-02-11T21:46:50.537Z,97327.67
2019-02-11T21:51:52.113Z,97323.45
2019-02-11T21:56:54.995Z,97328.20
2019-02-11T22:01:56.813Z,97330.80
2019-02-11T22:07:00.670Z,97323.19
2019-02-11T22:12:02.559Z,97316.94
2019-02-11T22:17:04.586Z,97316.59
2019-02-11T22:22:07.766Z,97315.34
2019-02-11T22:27:10.663Z,97323.97
2019-02-11T22:32:12.235Z,97335.27
2019-02-11T22:37:13.888Z,97347.45
2019-02-11T22:42:15.554Z,97355.87
2019-02-11T22:47:17.562Z,97360.34
2019-02-11T22:52:19.275Z,97368.02
2019-02-11T22:57:20.913Z,97370.80
2019-02-11T23:02:23.006Z,97372.06
2019-02-11T23:07:24.661Z,97373.97
2019-02-11T23:12:26.322Z,97372.01
2019-02-11T23:17:27.886Z,97377.06
2019-02-11T23:22:29.457Z,97368.82
2019-02-11T23:27:31.285Z,97372.95
2019-02-11T23:32:32.853Z,97367.12
2019-02-11T23:37:34.478Z,97377.39
2019-02-11T23:42:36.199Z,97380.19
2019-02-11T23:47:37.760Z,97388.13
2019-02-11T23:52:39.336Z,97392.59
2019-02-11T23:57:41.035Z,97402.80
